sensor_id;sensor_type;location;lat;lon;timestamp;pressure;altitude;pressure_sealevel;temperature;humidity
39265;BME280;42646;51.910;7.724;2022-11-20T00:01:32;100702.00;;;-4.12;98.90
39265;BME280;42646;51.910;7.724;2022-11-20T00:04:00;100699.47;;;-4.14;98.74
39265;BME280;42646;51.910;7.724;2022-11-20T00:06:30;100709.88;;;-4.15;98.52
39265;BME280;42646;51.910;7.724;2022-11-20T00:09:00;100706.53;;;-4.19;98.71
39265;BME280;42646;51.910;7.724;2022-11-20T00:11:29;100699.66;;;-4.21;98.88
39265;BME280;42646;51.910;7.724;2022-11-20T00:13:59;100703.22;;;-4.24;98.72
39265;BME280;42646;51.910;7.724;2022-11-20T00:16:29;100707.59;;;-4.26;98.48
39265;BME280;42646;51.910;7.724;2022-11-20T00:18:57;100705.00;;;-4.26;98.80
39265;BME280;42646;51.910;7.724;2022-11-20T00:21:26;100698.97;;;-4.28;98.66
39265;BME280;42646;51.910;7.724;2022-11-20T00:23:55;100700.78;;;-4.30;98.88
39265;BME280;42646;51.910;7.724;2022-11-20T00:26:27;100703.38;;;-4.30;99.21
39265;BME280;42646;51.910;7.724;2022-11-20T00:28:56;100700.84;;;-4.32;98.97
39265;BME280;42646;51.910;7.724;2022-11-20T00:31:25;100697.47;;;-4.35;99.39
39265;BME280;42646;51.910;7.724;2022-11-20T00:33:53;100704.44;;;-4.37;99.33
39265;BME280;42646;51.910;7.724;2022-11-20T00:36:23;100705.38;;;-4.40;99.52
39265;BME280;42646;51.910;7.724;2022-11-20T00:38:53;100704.56;;;-4.42;99.28
39265;BME280;42646;51.910;7.724;2022-11-20T00:41:22;100703.78;;;-4.45;99.02
39265;BME280;42646;51.910;7.724;2022-11-20T00:43:53;100705.59;;;-4.47;98.73
39265;BME280;42646;51.910;7.724;2022-11-20T00:46:22;100716.09;;;-4.50;98.49
39265;BME280;42646;51.910;7.724;2022-11-20T00:48:51;100709.16;;;-4.51;98.30
39265;BME280;42646;51.910;7.724;2022-11-20T00:51:22;100707.50;;;-4.54;98.40
39265;BME280;42646;51.910;7.724;2022-11-20T00:53:50;100717.13;;;-4.58;98.15
39265;BME280;42646;51.910;7.724;2022-11-20T00:56:19;100723.22;;;-4.59;98.27
39265;BME280;42646;51.910;7.724;2022-11-20T00:58:48;100723.25;;;-4.60;98.33
39265;BME280;42646;51.910;7.724;2022-11-20T01:01:20;100716.38;;;-4.63;97.92
39265;BME280;42646;51.910;7.724;2022-11-20T01:03:51;100712.97;;;-4.65;97.71
39265;BME280;42646;51.910;7.724;2022-11-20T01:06:22;100706.09;;;-4.66;98.08
39265;BME280;42646;51.910;7.724;2022-11-20T01:08:53;100709.66;;;-4.68;97.84
39265;BME280;42646;51.910;7.724;2022-11-20T01:11:23;100711.41;;;-4.70;98.10
39265;BME280;42646;51.910;7.724;2022-11-20T01:13:52;100712.34;;;-4.73;98.10
39265;BME280;42646;51.910;7.724;2022-11-20T01:16:25;100709.78;;;-4.74;98.26
39265;BME280;42646;51.910;7.724;2022-11-20T01:18:57;100711.56;;;-4.76;98.33
39265;BME280;42646;51.910;7.724;2022-11-20T01:21:26;100709.91;;;-4.79;98.33
39265;BME280;42646;51.910;7.724;2022-11-20T01:23:54;100714.25;;;-4.79;98.37
39265;BME280;42646;51.910;7.724;2022-11-20T01:26:23;100704.78;;;-4.82;98.19
39265;BME280;42646;51.910;7.724;2022-11-20T01:28:52;100704.84;;;-4.84;98.35
39265;BME280;42646;51.910;7.724;2022-11-20T01:31:25;100718.72;;;-4.85;98.13
39265;BME280;42646;51.910;7.724;2022-11-20T01:33:54;100714.44;;;-4.87;98.62
39265;BME280;42646;51.910;7.724;2022-11-20T01:36:24;100700.66;;;-4.89;98.63
39265;BME280;42646;51.910;7.724;2022-11-20T01:38:52;100698.97;;;-4.90;98.72
39265;BME280;42646;51.910;7.724;2022-11-20T01:41:22;100696.38;;;-4.90;98.41
39265;BME280;42646;51.910;7.724;2022-11-20T01:44:10;100686.91;;;-4.93;98.79
39265;BME280;42646;51.910;7.724;2022-11-20T01:46:42;100678.31;;;-4.95;99.15
39265;BME280;42646;51.910;7.724;2022-11-20T01:49:18;100680.06;;;-4.95;99.76
39265;BME280;42646;51.910;7.724;2022-11-20T01:51:48;100676.69;;;-4.97;99.86
39265;BME280;42646;51.910;7.724;2022-11-20T01:54:19;100671.50;;;-4.97;100.00
39265;BME280;42646;51.910;7.724;2022-11-20T01:56:51;100670.53;;;-4.95;100.00
39265;BME280;42646;51.910;7.724;2022-11-20T01:59:23;100668.97;;;-5.00;100.00
39265;BME280;42646;51.910;7.724;2022-11-20T02:01:54;100664.66;;;-5.01;100.00
39265;BME280;42646;51.910;7.724;2022-11-20T02:04:22;100662.06;;;-5.01;100.00
39265;BME280;42646;51.910;7.724;2022-11-20T02:06:53;100663.03;;;-5.04;100.00
39265;BME280;42646;51.910;7.724;2022-11-20T02:09:28;100658.69;;;-5.05;100.00
39265;BME280;42646;51.910;7.724;2022-11-20T02:11:56;100654.41;;;-5.06;100.00
39265;BME280;42646;51.910;7.724;2022-11-20T02:14:28;100656.19;;;-5.08;100.00
39265;BME280;42646;51.910;7.724;2022-11-20T02:16:57;100657.09;;;-5.09;100.00
39265;BME280;42646;51.910;7.724;2022-11-20T02:19:27;100643.28;;;-5.11;100.00
39265;BME280;42646;51.910;7.724;2022-11-20T02:22:00;100650.28;;;-5.13;100.00
39265;BME280;42646;51.910;7.724;2022-11-20T02:24:31;100647.75;;;-5.16;100.00
39265;BME280;42646;51.910;7.724;2022-11-20T02:27:00;100655.56;;;-5.18;100.00
39265;BME280;42646;51.910;7.724;2022-11-20T02:29:32;100641.84;;;-5.21;100.00
39265;BME280;42646;51.910;7.724;2022-11-20T02:32:01;100635.84;;;-5.23;100.00
39265;BME280;42646;51.910;7.724;2022-11-20T02:34:31;100632.44;;;-5.25;100.00
39265;BME280;42646;51.910;7.724;2022-11-20T02:36:59;100636.78;;;-5.26;99.82
39265;BME280;42646;51.910;7.724;2022-11-20T02:39:28;100638.59;;;-5.29;99.99
39265;BME280;42646;51.910;7.724;2022-11-20T02:42:00;100639.53;;;-5.32;99.86
39265;BME280;42646;51.910;7.724;2022-11-20T02:44:28;100645.59;;;-5.33;99.56
39265;BME280;42646;51.910;7.724;2022-11-20T02:46:58;100641.28;;;-5.34;99.48
39265;BME280;42646;51.910;7.724;2022-11-20T02:49:26;100643.13;;;-5.38;99.47
39265;BME280;42646;51.910;7.724;2022-11-20T02:51:59;100639.69;;;-5.38;99.49
39265;BME280;42646;51.910;7.724;2022-11-20T02:54:27;100640.59;;;-5.41;99.28
39265;BME280;42646;51.910;7.724;2022-11-20T02:57:24;100641.56;;;-5.45;99.35
39265;BME280;42646;51.910;7.724;2022-11-20T03:00:41;100638.19;;;-5.48;99.17
39265;BME280;42646;51.910;7.724;2022-11-20T03:03:10;100646.03;;;-5.50;99.04
39265;BME280;42646;51.910;7.724;2022-11-20T03:05:37;100647.75;;;-5.50;99.25
39265;BME280;42646;51.910;7.724;2022-11-20T03:08:06;100640.88;;;-5.51;99.41
39265;BME280;42646;51.910;7.724;2022-11-20T03:10:34;100636.59;;;-5.54;99.40
39265;BME280;42646;51.910;7.724;2022-11-20T03:13:03;100631.41;;;-5.54;99.46
39265;BME280;42646;51.910;7.724;2022-11-20T03:15:31;100620.22;;;-5.54;99.10
39265;BME280;42646;51.910;7.724;2022-11-20T03:17:59;100622.84;;;-5.56;99.39
39265;BME280;42646;51.910;7.724;2022-11-20T03:20:27;100622.84;;;-5.57;99.54
39265;BME280;42646;51.910;7.724;2022-11-20T03:23:00;100627.25;;;-5.59;99.72
39265;BME280;42646;51.910;7.724;2022-11-20T03:25:30;100620.34;;;-5.60;99.44
39265;BME280;42646;51.910;7.724;2022-11-20T03:27:58;100622.09;;;-5.61;99.36
39265;BME280;42646;51.910;7.724;2022-11-20T03:30:53;100614.38;;;-5.64;99.60
39265;BME280;42646;51.910;7.724;2022-11-20T03:33:46;100611.84;;;-5.66;99.37
39265;BME280;42646;51.910;7.724;2022-11-20T03:36:15;100620.50;;;-5.67;99.45
39265;BME280;42646;51.910;7.724;2022-11-20T03:38:44;100614.53;;;-5.69;99.77
39265;BME280;42646;51.910;7.724;2022-11-20T03:41:15;100619.72;;;-5.70;99.86
39265;BME280;42646;51.910;7.724;2022-11-20T03:43:47;100612.88;;;-5.73;99.65
39265;BME280;42646;51.910;7.724;2022-11-20T03:46:21;100615.47;;;-5.73;99.73
39265;BME280;42646;51.910;7.724;2022-11-20T03:48:49;100616.38;;;-5.74;99.84
39265;BME280;42646;51.910;7.724;2022-11-20T03:51:19;100618.97;;;-5.75;99.87
39265;BME280;42646;51.910;7.724;2022-11-20T03:53:48;100613.84;;;-5.77;99.85
39265;BME280;42646;51.910;7.724;2022-11-20T03:56:19;100612.19;;;-5.79;99.95
39265;BME280;42646;51.910;7.724;2022-11-20T03:58:47;100609.63;;;-5.81;99.66
39265;BME280;42646;51.910;7.724;2022-11-20T04:01:19;100607.09;;;-5.84;99.69
39265;BME280;42646;51.910;7.724;2022-11-20T04:03:49;100602.81;;;-5.85;99.67
39265;BME280;42646;51.910;7.724;2022-11-20T04:06:41;100604.59;;;-5.87;99.54
39265;BME280;42646;51.910;7.724;2022-11-20T04:09:10;100596.84;;;-5.88;99.43
39265;BME280;42646;51.910;7.724;2022-11-20T04:11:40;100602.91;;;-5.89;99.50
39265;BME280;42646;51.910;7.724;2022-11-20T04:14:13;100597.75;;;-5.89;99.48
39265;BME280;42646;51.910;7.724;2022-11-20T04:16:42;100592.63;;;-5.91;99.77
39265;BME280;42646;51.910;7.724;2022-11-20T04:19:15;100596.97;;;-5.93;99.67
39265;BME280;42646;51.910;7.724;2022-11-20T04:21:43;100595.28;;;-5.94;99.91
39265;BME280;42646;51.910;7.724;2022-11-20T04:24:13;100596.22;;;-5.97;99.58
39265;BME280;42646;51.910;7.724;2022-11-20T04:26:41;100592.81;;;-5.99;99.90
39265;BME280;42646;51.910;7.724;2022-11-20T04:29:11;100592.84;;;-6.00;99.89
39265;BME280;42646;51.910;7.724;2022-11-20T04:31:39;100597.16;;;-6.01;99.95
39265;BME280;42646;51.910;7.724;2022-11-20T04:34:07;100603.28;;;-6.03;99.92
39265;BME280;42646;51.910;7.724;2022-11-20T04:36:36;100609.34;;;-6.04;99.90
39265;BME280;42646;51.910;7.724;2022-11-20T04:39:05;100597.28;;;-6.05;99.72
39265;BME280;42646;51.910;7.724;2022-11-20T04:41:35;100593.81;;;-6.06;99.76
39265;BME280;42646;51.910;7.724;2022-11-20T04:44:03;100597.28;;;-6.05;99.93
39265;BME280;42646;51.910;7.724;2022-11-20T04:46:34;100599.84;;;-6.04;99.79
39265;BME280;42646;51.910;7.724;2022-11-20T04:49:02;100598.06;;;-6.02;99.96
39265;BME280;42646;51.910;7.724;2022-11-20T04:51:32;100598.84;;;-5.98;100.00
39265;BME280;42646;51.910;7.724;2022-11-20T04:54:03;100599.56;;;-5.93;100.00
39265;BME280;42646;51.910;7.724;2022-11-20T04:56:30;100603.78;;;-5.89;100.00
39265;BME280;42646;51.910;7.724;2022-11-20T04:59:00;100602.81;;;-5.85;100.00
39265;BME280;42646;51.910;7.724;2022-11-20T05:01:29;100601.88;;;-5.81;100.00
39265;BME280;42646;51.910;7.724;2022-11-20T05:03:57;100596.59;;;-5.78;100.00
39265;BME280;42646;51.910;7.724;2022-11-20T05:06:24;100596.44;;;-5.72;100.00
39265;BME280;42646;51.910;7.724;2022-11-20T05:08:52;100602.31;;;-5.65;100.00
39265;BME280;42646;51.910;7.724;2022-11-20T05:11:21;100603.84;;;-5.56;100.00
39265;BME280;42646;51.910;7.724;2022-11-20T05:13:50;100597.66;;;-5.51;100.00
39265;BME280;42646;51.910;7.724;2022-11-20T05:16:19;100594.91;;;-5.45;100.00
39265;BME280;42646;51.910;7.724;2022-11-20T05:18:48;100591.31;;;-5.39;100.00
39265;BME280;42646;51.910;7.724;2022-11-20T05:21:17;100597.16;;;-5.31;100.00
39265;BME280;42646;51.910;7.724;2022-11-20T05:23:46;100594.34;;;-5.23;100.00
39265;BME280;42646;51.910;7.724;2022-11-20T05:26:17;100601.94;;;-5.16;100.00
39265;BME280;42646;51.910;7.724;2022-11-20T05:28:46;100595.72;;;-5.10;100.00
39265;BME280;42646;51.910;7.724;2022-11-20T05:31:18;100592.09;;;-5.03;100.00
39265;BME280;42646;51.910;7.724;2022-11-20T05:33:53;100592.78;;;-4.96;100.00
39265;BME280;42646;51.910;7.724;2022-11-20T05:36:21;100603.81;;;-4.90;100.00
39265;BME280;42646;51.910;7.724;2022-11-20T05:38:48;100587.13;;;-4.81;100.00
39265;BME280;42646;51.910;7.724;2022-11-20T05:41:19;100591.28;;;-4.74;100.00
39265;BME280;42646;51.910;7.724;2022-11-20T05:43:49;100590.25;;;-4.68;100.00
39265;BME280;42646;51.910;7.724;2022-11-20T05:46:18;100590.03;;;-4.61;100.00
39265;BME280;42646;51.910;7.724;2022-11-20T05:49:19;100586.41;;;-4.55;100.00
39265;BME280;42646;51.910;7.724;2022-11-20T05:52:13;100581.84;;;-4.47;100.00
39265;BME280;42646;51.910;7.724;2022-11-20T05:54:44;100587.69;;;-4.40;100.00
39265;BME280;42646;51.910;7.724;2022-11-20T05:57:12;100588.47;;;-4.37;100.00
39265;BME280;42646;51.910;7.724;2022-11-20T05:59:42;100582.22;;;-4.31;100.00
39265;BME280;42646;51.910;7.724;2022-11-20T06:02:10;100578.59;;;-4.25;100.00
39265;BME280;42646;51.910;7.724;2022-11-20T06:04:39;100575.88;;;-4.21;100.00
39265;BME280;42646;51.910;7.724;2022-11-20T06:07:07;100581.75;;;-4.16;100.00
39265;BME280;42646;51.910;7.724;2022-11-20T06:09:35;100579.88;;;-4.11;100.00
39265;BME280;42646;51.910;7.724;2022-11-20T06:12:03;100575.44;;;-4.07;100.00
39265;BME280;42646;51.910;7.724;2022-11-20T06:14:31;100578.75;;;-4.02;100.00
39265;BME280;42646;51.910;7.724;2022-11-20T06:17:00;100583.75;;;-3.97;100.00
39265;BME280;42646;51.910;7.724;2022-11-20T06:19:28;100577.59;;;-3.93;100.00
39265;BME280;42646;51.910;7.724;2022-11-20T06:21:56;100579.19;;;-3.89;100.00
39265;BME280;42646;51.910;7.724;2022-11-20T06:24:24;100576.47;;;-3.85;100.00
39265;BME280;42646;51.910;7.724;2022-11-20T06:26:56;100578.84;;;-3.79;100.00
39265;BME280;42646;51.910;7.724;2022-11-20T06:29:24;100575.25;;;-3.74;100.00
39265;BME280;42646;51.910;7.724;2022-11-20T06:32:00;100575.09;;;-3.70;100.00
39265;BME280;42646;51.910;7.724;2022-11-20T06:34:28;100573.19;;;-3.65;100.00
39265;BME280;42646;51.910;7.724;2022-11-20T06:36:56;100573.06;;;-3.60;100.00
39265;BME280;42646;51.910;7.724;2022-11-20T06:39:27;100578.09;;;-3.56;100.00
39265;BME280;42646;51.910;7.724;2022-11-20T06:41:57;100571.88;;;-3.52;100.00
39265;BME280;42646;51.910;7.724;2022-11-20T06:44:25;100579.53;;;-3.47;100.00
39265;BME280;42646;51.910;7.724;2022-11-20T06:46:53;100581.13;;;-3.43;100.00
39265;BME280;42646;51.910;7.724;2022-11-20T06:49:22;100594.88;;;-3.39;100.00
39265;BME280;42646;51.910;7.724;2022-11-20T06:52:17;100590.38;;;-3.34;100.00
39265;BME280;42646;51.910;7.724;2022-11-20T06:54:45;100592.75;;;-3.28;100.00
39265;BME280;42646;51.910;7.724;2022-11-20T06:57:13;100584.81;;;-3.24;100.00
39265;BME280;42646;51.910;7.724;2022-11-20T06:59:41;100588.09;;;-3.18;100.00
39265;BME280;42646;51.910;7.724;2022-11-20T07:02:09;100600.06;;;-3.14;100.00
39265;BME280;42646;51.910;7.724;2022-11-20T07:04:41;100589.53;;;-3.10;100.00
39265;BME280;42646;51.910;7.724;2022-11-20T07:07:09;100593.72;;;-3.06;100.00
39265;BME280;42646;51.910;7.724;2022-11-20T07:09:36;100593.56;;;-3.01;100.00
39265;BME280;42646;51.910;7.724;2022-11-20T07:12:05;100591.69;;;-2.98;100.00
39265;BME280;42646;51.910;7.724;2022-11-20T07:14:35;100595.88;;;-2.93;100.00
39265;BME280;42646;51.910;7.724;2022-11-20T07:17:02;100580.19;;;-2.90;100.00
39265;BME280;42646;51.910;7.724;2022-11-20T07:19:30;100585.09;;;-2.83;100.00
39265;BME280;42646;51.910;7.724;2022-11-20T07:21:59;100585.88;;;-2.81;100.00
39265;BME280;42646;51.910;7.724;2022-11-20T07:24:27;100592.69;;;-2.77;100.00
39265;BME280;42646;51.910;7.724;2022-11-20T07:26:56;100589.09;;;-2.73;100.00
39265;BME280;42646;51.910;7.724;2022-11-20T07:29:24;100587.13;;;-2.67;100.00
39265;BME280;42646;51.910;7.724;2022-11-20T07:31:52;100597.38;;;-2.63;100.00
39265;BME280;42646;51.910;7.724;2022-11-20T07:34:24;100591.94;;;-2.57;100.00
39265;BME280;42646;51.910;7.724;2022-11-20T07:36:51;100597.97;;;-2.55;100.00
39265;BME280;42646;51.910;7.724;2022-11-20T07:39:21;100602.13;;;-2.51;100.00
39265;BME280;42646;51.910;7.724;2022-11-20T07:41:49;100602.88;;;-2.47;100.00
39265;BME280;42646;51.910;7.724;2022-11-20T07:44:17;100593.19;;;-2.44;100.00
39265;BME280;42646;51.910;7.724;2022-11-20T07:46:44;100587.03;;;-2.41;100.00
39265;BME280;42646;51.910;7.724;2022-11-20T07:49:12;100583.44;;;-2.38;100.00
39265;BME280;42646;51.910;7.724;2022-11-20T07:51:39;100597.22;;;-2.35;100.00
39265;BME280;42646;51.910;7.724;2022-11-20T07:54:07;100591.03;;;-2.32;100.00
39265;BME280;42646;51.910;7.724;2022-11-20T07:56:36;100595.28;;;-2.30;100.00
39265;BME280;42646;51.910;7.724;2022-11-20T07:59:08;100594.31;;;-2.27;100.00
39265;BME280;42646;51.910;7.724;2022-11-20T08:01:38;100589.03;;;-2.26;100.00
39265;BME280;42646;51.910;7.724;2022-11-20T08:04:06;100594.97;;;-2.22;100.00
39265;BME280;42646;51.910;7.724;2022-11-20T08:06:35;100591.41;;;-2.20;100.00
39265;BME280;42646;51.910;7.724;2022-11-20T08:09:03;100582.63;;;-2.17;100.00
39265;BME280;42646;51.910;7.724;2022-11-20T08:11:31;100585.09;;;-2.14;100.00
39265;BME280;42646;51.910;7.724;2022-11-20T08:14:22;100581.53;;;-2.11;100.00
39265;BME280;42646;51.910;7.724;2022-11-20T08:16:50;100584.09;;;-2.10;100.00
39265;BME280;42646;51.910;7.724;2022-11-20T08:19:20;100590.94;;;-2.07;100.00
39265;BME280;42646;51.910;7.724;2022-11-20T08:21:48;100586.44;;;-2.04;100.00
39265;BME280;42646;51.910;7.724;2022-11-20T08:24:19;100582.88;;;-2.01;100.00
39265;BME280;42646;51.910;7.724;2022-11-20T08:26:46;100587.03;;;-1.97;100.00
39265;BME280;42646;51.910;7.724;2022-11-20T08:29:15;100591.31;;;-1.95;100.00
39265;BME280;42646;51.910;7.724;2022-11-20T08:31:44;100593.72;;;-1.90;100.00
39265;BME280;42646;51.910;7.724;2022-11-20T08:34:14;100582.34;;;-1.88;100.00
39265;BME280;42646;51.910;7.724;2022-11-20T08:36:44;100590.00;;;-1.84;100.00
39265;BME280;42646;51.910;7.724;2022-11-20T08:39:12;100588.06;;;-1.79;100.00
39265;BME280;42646;51.910;7.724;2022-11-20T08:41:40;100588.88;;;-1.77;100.00
39265;BME280;42646;51.910;7.724;2022-11-20T08:44:08;100599.94;;;-1.72;100.00
39265;BME280;42646;51.910;7.724;2022-11-20T08:46:37;100595.53;;;-1.70;100.00
39265;BME280;42646;51.910;7.724;2022-11-20T08:49:12;100582.34;;;-1.67;100.00
39265;BME280;42646;51.910;7.724;2022-11-20T08:51:41;100584.78;;;-1.63;100.00
39265;BME280;42646;51.910;7.724;2022-11-20T08:54:09;100573.31;;;-1.58;100.00
39265;BME280;42646;51.910;7.724;2022-11-20T08:56:37;100582.66;;;-1.53;100.00
39265;BME280;42646;51.910;7.724;2022-11-20T08:59:05;100584.22;;;-1.49;100.00
39265;BME280;42646;51.910;7.724;2022-11-20T09:01:54;100577.13;;;-1.45;100.00
39265;BME280;42646;51.910;7.724;2022-11-20T09:04:23;100578.69;;;-1.41;100.00
39265;BME280;42646;51.910;7.724;2022-11-20T09:06:51;100576.84;;;-1.39;100.00
39265;BME280;42646;51.910;7.724;2022-11-20T09:09:19;100576.75;;;-1.36;100.00
39265;BME280;42646;51.910;7.724;2022-11-20T09:11:47;100580.91;;;-1.32;100.00
39265;BME280;42646;51.910;7.724;2022-11-20T09:14:16;100586.00;;;-1.29;100.00
39265;BME280;42646;51.910;7.724;2022-11-20T09:16:44;100585.84;;;-1.26;100.00
39265;BME280;42646;51.910;7.724;2022-11-20T09:19:12;100581.38;;;-1.22;100.00
39265;BME280;42646;51.910;7.724;2022-11-20T09:22:01;100580.94;;;-1.13;100.00
39265;BME280;42646;51.910;7.724;2022-11-20T09:24:55;100575.44;;;-1.05;100.00
39265;BME280;42646;51.910;7.724;2022-11-20T09:27:23;100564.63;;;-0.98;100.00
39265;BME280;42646;51.910;7.724;2022-11-20T09:29:51;100567.75;;;-0.90;100.00
39265;BME280;42646;51.910;7.724;2022-11-20T09:32:18;100563.06;;;-0.82;100.00
39265;BME280;42646;51.910;7.724;2022-11-20T09:34:46;100562.69;;;-0.74;100.00
39265;BME280;42646;51.910;7.724;2022-11-20T09:37:15;100559.81;;;-0.68;100.00
39265;BME280;42646;51.910;7.724;2022-11-20T09:39:43;100559.41;;;-0.59;100.00
39265;BME280;42646;51.910;7.724;2022-11-20T09:42:30;100558.13;;;-0.50;100.00
39265;BME280;42646;51.910;7.724;2022-11-20T09:45:23;100565.56;;;-0.41;100.00
39265;BME280;42646;51.910;7.724;2022-11-20T09:48:25;100563.34;;;-0.31;100.00
39265;BME280;42646;51.910;7.724;2022-11-20T09:51:02;100558.63;;;-0.23;100.00
39265;BME280;42646;51.910;7.724;2022-11-20T09:53:41;100546.03;;;-0.15;100.00
39265;BME280;42646;51.910;7.724;2022-11-20T09:56:14;100548.13;;;-0.04;100.00
39265;BME280;42646;51.910;7.724;2022-11-20T09:58:51;100545.13;;;0.04;100.00
39265;BME280;42646;51.910;7.724;2022-11-20T10:01:23;100535.22;;;0.10;100.00
39265;BME280;42646;51.910;7.724;2022-11-20T10:03:56;100524.31;;;0.19;100.00
39265;BME280;42646;51.910;7.724;2022-11-20T10:06:29;100525.69;;;0.26;100.00
39265;BME280;42646;51.910;7.724;2022-11-20T10:09:13;100517.56;;;0.33;100.00
39265;BME280;42646;51.910;7.724;2022-11-20T10:11:50;100524.06;;;0.41;100.00
39265;BME280;42646;51.910;7.724;2022-11-20T10:14:31;100519.47;;;0.46;100.00
39265;BME280;42646;51.910;7.724;2022-11-20T10:17:13;100518.91;;;0.57;100.00
39265;BME280;42646;51.910;7.724;2022-11-20T10:19:54;100513.47;;;0.62;100.00
39265;BME280;42646;51.910;7.724;2022-11-20T10:22:35;100503.50;;;0.68;100.00
39265;BME280;42646;51.910;7.724;2022-11-20T10:25:14;100496.88;;;0.78;100.00
39265;BME280;42646;51.910;7.724;2022-11-20T10:27:52;100501.19;;;0.79;100.00
39265;BME280;42646;51.910;7.724;2022-11-20T10:30:23;100499.19;;;0.85;100.00
39265;BME280;42646;51.910;7.724;2022-11-20T10:33:19;100501.47;;;0.91;100.00
39265;BME280;42646;51.910;7.724;2022-11-20T10:35:52;100496.84;;;0.96;100.00
39265;BME280;42646;51.910;7.724;2022-11-20T10:38:25;100498.22;;;1.03;100.00
39265;BME280;42646;51.910;7.724;2022-11-20T10:41:01;100499.66;;;1.09;100.00
39265;BME280;42646;51.910;7.724;2022-11-20T10:43:46;100489.00;;;1.12;100.00
39265;BME280;42646;51.910;7.724;2022-11-20T10:46:16;100497.31;;;1.20;100.00
39265;BME280;42646;51.910;7.724;2022-11-20T10:48:46;100497.91;;;1.25;100.00
39265;BME280;42646;51.910;7.724;2022-11-20T10:51:21;100499.34;;;1.30;100.00
39265;BME280;42646;51.910;7.724;2022-11-20T10:54:06;100488.34;;;1.40;100.00
39265;BME280;42646;51.910;7.724;2022-11-20T10:56:41;100489.66;;;1.48;100.00
39265;BME280;42646;51.910;7.724;2022-11-20T10:59:35;100488.53;;;1.52;100.00
39265;BME280;42646;51.910;7.724;2022-11-20T11:02:17;100487.53;;;1.55;100.00
39265;BME280;42646;51.910;7.724;2022-11-20T11:04:46;100481.75;;;1.64;100.00
39265;BME280;42646;51.910;7.724;2022-11-20T11:07:17;100469.06;;;1.72;100.00
39265;BME280;42646;51.910;7.724;2022-11-20T11:09:47;100468.03;;;1.75;100.00
39265;BME280;42646;51.910;7.724;2022-11-20T11:12:16;100451.78;;;1.84;100.00
39265;BME280;42646;51.910;7.724;2022-11-20T11:14:46;100460.41;;;1.86;100.00
39265;BME280;42646;51.910;7.724;2022-11-20T11:17:23;100458.44;;;1.90;100.00
39265;BME280;42646;51.910;7.724;2022-11-20T11:20:00;100459.03;;;1.95;100.00
39265;BME280;42646;51.910;7.724;2022-11-20T11:22:29;100452.00;;;1.95;100.00
39265;BME280;42646;51.910;7.724;2022-11-20T11:24:59;100450.81;;;2.01;100.00
39265;BME280;42646;51.910;7.724;2022-11-20T11:27:28;100443.72;;;2.03;100.00
39265;BME280;42646;51.910;7.724;2022-11-20T11:30:12;100445.97;;;2.09;100.00
39265;BME280;42646;51.910;7.724;2022-11-20T11:32:40;100449.19;;;2.14;100.00
39265;BME280;42646;51.910;7.724;2022-11-20T11:35:20;100443.72;;;2.17;100.00
39265;BME280;42646;51.910;7.724;2022-11-20T11:37:48;100435.50;;;2.23;100.00
39265;BME280;42646;51.910;7.724;2022-11-20T11:40:18;100431.41;;;2.33;100.00
39265;BME280;42646;51.910;7.724;2022-11-20T11:42:54;100426.53;;;2.41;100.00
39265;BME280;42646;51.910;7.724;2022-11-20T11:45:24;100426.09;;;2.49;100.00
39265;BME280;42646;51.910;7.724;2022-11-20T11:47:53;100423.00;;;2.57;100.00
39265;BME280;42646;51.910;7.724;2022-11-20T11:50:23;100424.41;;;2.62;100.00
39265;BME280;42646;51.910;7.724;2022-11-20T11:52:58;100422.88;;;2.73;100.00
39265;BME280;42646;51.910;7.724;2022-11-20T11:55:33;100426.75;;;2.81;100.00
39265;BME280;42646;51.910;7.724;2022-11-20T11:58:16;100413.88;;;2.91;100.00
39265;BME280;42646;51.910;7.724;2022-11-20T12:00:53;100417.72;;;3.00;99.64
39265;BME280;42646;51.910;7.724;2022-11-20T12:03:27;100420.50;;;3.11;98.53
39265;BME280;42646;51.910;7.724;2022-11-20T12:05:58;100421.91;;;3.16;97.51
39265;BME280;42646;51.910;7.724;2022-11-20T12:08:31;100420.47;;;3.25;95.72
39265;BME280;42646;51.910;7.724;2022-11-20T12:11:03;100418.41;;;3.30;94.27
39265;BME280;42646;51.910;7.724;2022-11-20T12:13:42;100413.50;;;3.38;93.04
39265;BME280;42646;51.910;7.724;2022-11-20T12:16:13;100397.97;;;3.48;90.31
39265;BME280;42646;51.910;7.724;2022-11-20T12:18:42;100399.03;;;3.45;87.96
39265;BME280;42646;51.910;7.724;2022-11-20T12:21:18;100393.53;;;3.48;85.79
39265;BME280;42646;51.910;7.724;2022-11-20T12:24:03;100379.44;;;3.49;85.08
39265;BME280;42646;51.910;7.724;2022-11-20T12:26:44;100375.91;;;3.51;84.25
39265;BME280;42646;51.910;7.724;2022-11-20T12:29:22;100380.53;;;3.60;83.96
39265;BME280;42646;51.910;7.724;2022-11-20T12:32:04;100373.78;;;3.56;84.01
39265;BME280;42646;51.910;7.724;2022-11-20T12:34:47;100372.94;;;3.55;83.40
39265;BME280;42646;51.910;7.724;2022-11-20T12:37:30;100375.41;;;3.58;82.28
39265;BME280;42646;51.910;7.724;2022-11-20T12:40:13;100366.66;;;3.58;81.20
39265;BME280;42646;51.910;7.724;2022-11-20T12:42:56;100363.38;;;3.54;82.17
39265;BME280;42646;51.910;7.724;2022-11-20T12:46:14;100364.44;;;3.52;82.41
39265;BME280;42646;51.910;7.724;2022-11-20T12:48:56;100362.44;;;3.55;83.39
39265;BME280;42646;51.910;7.724;2022-11-20T12:51:43;100366.66;;;3.58;83.62
39265;BME280;42646;51.910;7.724;2022-11-20T12:54:37;100358.97;;;3.55;83.84
39265;BME280;42646;51.910;7.724;2022-11-20T12:57:14;100357.94;;;3.57;84.00
39265;BME280;42646;51.910;7.724;2022-11-20T13:00:00;100357.16;;;3.55;83.76
39265;BME280;42646;51.910;7.724;2022-11-20T13:02:41;100353.06;;;3.51;84.25
39265;BME280;42646;51.910;7.724;2022-11-20T13:05:19;100350.53;;;3.49;84.78
39265;BME280;42646;51.910;7.724;2022-11-20T13:07:51;100355.16;;;3.46;85.71
39265;BME280;42646;51.910;7.724;2022-11-20T13:10:26;100352.72;;;3.43;86.10
39265;BME280;42646;51.910;7.724;2022-11-20T13:13:01;100350.41;;;3.38;86.50